Aviation Digital Data Service (ADDS)

Output produced by METARs form (1901 UTC 09 December 2018)
found at http://www.aviationweather.gov/metar/data/
 
TAF HSOB 091700Z 0918/1024 36010G20KT CAVOK
       
TAF HSSJ 091000Z 0912/1018 10003KT 6000 BR SCT040 BKN140 
     BECMG 0915/0918 09005KT 8000 -BR SCT040 SCT140 
     PROB30 
     TEMPO 0918/0924 VRB10KT 6000 TSRA FEW040CB BKN090
       
TAF HSKA 091700Z 0918/1024 VRB03KT CAVOK
       
HSSS 091900Z 34011KT CAVOK 24/M01 Q1017 NOSIG
TAF HSSS 091700Z 0918/1024 34010G20KT CAVOK 
     TEMPO 1006/1009 6000
       
TAF HSPN 091700Z 0918/1024 02010G20KT 9999 SCT030 
     PROB30 
     TEMPO 0918/0921 8000 SHRA BKN030 
     FM092000 31008G18KT 
     BECMG 1010/1012 04012G22KT 9999 FEW030 SCT130